Yamato — JD2252 — position and weather

sailwx.info

Track history (hours):
 
Tides and Currents Weather Stations Pressure Air Temp Water Temp Dewpoint Dewpoint Depression Visibility Wind Speed Wind Dir Waves Ship Positions

Yamato

Last reported at 2014-Aug-26 22:28 UTC. Time now 2014-Aug-27 19:19 UTC.
Position N 35°27' E 139°39'.

Length 40 m; draft 3.6 m.

Type: Tug. MMSI: 431101141.

Date/timePositionNaut miles runAvg speedWind from/ knotsBaromVisibWave heightAir tempDewpointWater temp
2014-Aug-26 22:28N 35°27' E 139°39'2 2.4
2014-Aug-26 21:33N 35°27' E 139°41'1 0.6
2014-Aug-26 20:34N 35°27' E 139°42'1 0.8
2014-Aug-26 19:34N 35°27' E 139°41'1 1.2
2014-Aug-26 18:34N 35°28' E 139°40'0 0.0
2014-Aug-26 17:34N 35°28' E 139°40'0 0.0
2014-Aug-26 16:34N 35°28' E 139°40'0 0.0
2014-Aug-26 15:33N 35°28' E 139°40'1 1.2
2014-Aug-26 14:33N 35°27' E 139°41'3 2.8
2014-Aug-26 13:33N 35°24' E 139°40'1 0.6
2014-Aug-26 12:33N 35°24' E 139°41'1 1.5
2014-Aug-26 11:33N 35°25' E 139°42'0 0.0
2014-Aug-26 10:33N 35°25' E 139°42'1 1.0
2014-Aug-26 09:34N 35°26' E 139°42'2 2.0
2014-Aug-26 08:33N 35°27' E 139°39'1 0.6
2014-Aug-26 07:33N 35°27' E 139°39'0 0.3
2014-Aug-26 06:33N 35°27' E 139°39'0 0.0
2014-Aug-26 05:34N 35°27' E 139°39'0 0.0
2014-Aug-26 04:33N 35°27' E 139°39'0 0.0
2014-Aug-26 03:34N 35°27' E 139°39'0 0.0
2014-Aug-26 02:33N 35°27' E 139°39'0 0.0
2014-Aug-26 01:33N 35°27' E 139°39'0 0.0
2014-Aug-26 00:34N 35°27' E 139°39'0 0.0
2014-Aug-25 23:34N 35°27' E 139°39'1 0.1
2014-Aug-25 07:33N 35°27' E 139°40'3 3.3
2014-Aug-25 06:33N 35°24' E 139°38'0 0.0
2014-Aug-25 05:33N 35°24' E 139°38'1 1.4
2014-Aug-25 04:33N 35°24' E 139°40'3 2.6
2014-Aug-25 03:33N 35°26' E 139°42'0 0.0
2014-Aug-25 02:33N 35°26' E 139°42'0 0.0
2014-Aug-25 01:33N 35°26' E 139°42'3 3.0
2014-Aug-25 00:33N 35°28' E 139°44'2 2.1
2014-Aug-24 23:33N 35°30' E 139°44'5 5.4
2014-Aug-24 22:33N 35°27' E 139°39'6 0.1
2014-Aug-23 03:33N 35°28' E 139°45'0 0.0
2014-Aug-23 02:33N 35°28' E 139°45'0 0.1
2014-Aug-23 01:33N 35°28' E 139°45'3 2.6
2014-Aug-23 00:33N 35°31' E 139°46'1 1.3
2014-Aug-22 23:33N 35°30' E 139°45'5 5.3
2014-Aug-22 22:33N 35°28' E 139°39'1 1.2
2014-Aug-22 21:33N 35°28' E 139°40'1 1.0
2014-Aug-22 20:33N 35°27' E 139°39'2 0.2
2014-Aug-22 11:33N 35°27' E 139°41'2 2.2
2014-Aug-22 10:33N 35°26' E 139°43'1 1.5
2014-Aug-22 09:33N 35°27' E 139°42'0 0.0
2014-Aug-22 08:33N 35°27' E 139°42'0 0.0
2014-Aug-22 07:33N 35°27' E 139°42'1 1.0
2014-Aug-22 06:33N 35°26' E 139°42'2 2.1
2014-Aug-22 05:33N 35°27' E 139°40'1 0.8
2014-Aug-22 04:33N 35°27' E 139°39'0 0.0
2014-Aug-22 03:33N 35°27' E 139°39'0 0.0
2014-Aug-22 02:33N 35°27' E 139°39'0 0.0
2014-Aug-22 01:33N 35°27' E 139°39'0 0.0
2014-Aug-22 00:33N 35°27' E 139°39'0 0.0
2014-Aug-21 23:33N 35°27' E 139°39'0 0.0
2014-Aug-21 22:33N 35°27' E 139°39'0 0.0
2014-Aug-21 21:33N 35°27' E 139°39'0 0.0
2014-Aug-21 20:33N 35°27' E 139°39'0 0.0
2014-Aug-21 09:08N 35°27' E 139°39'4 6.2
2014-Aug-21 08:34N 35°28' E 139°43'2 2.2
2014-Aug-21 07:33N 35°28' E 139°46'6 5.6
2014-Aug-21 06:33N 35°27' E 139°39'0 0.2
2014-Aug-21 05:33N 35°27' E 139°39'0 0.0
2014-Aug-21 04:33N 35°27' E 139°39'0 0.0
2014-Aug-21 03:33N 35°27' E 139°39'0 0.0
2014-Aug-21 02:33N 35°27' E 139°39'0 0.0
2014-Aug-21 01:33N 35°27' E 139°39'0 0.0
2014-Aug-21 00:33N 35°27' E 139°39'0 0.0
2014-Aug-20 23:33N 35°27' E 139°39'3 2.7
2014-Aug-20 22:33N 35°27' E 139°42'3 2.7
2014-Aug-20 21:34N 35°27' E 139°39'0 0.1
2014-Aug-20 20:33N 35°27' E 139°39'0 0.0
2014-Aug-20 19:33N 35°27' E 139°39'0 0.0
2014-Aug-20 18:33N 35°27' E 139°39'0 0.0
2014-Aug-20 17:33N 35°27' E 139°39'0 0.0
2014-Aug-20 16:33N 35°27' E 139°39'0 0.0
2014-Aug-20 15:33N 35°27' E 139°39'0 0.0
2014-Aug-20 14:33N 35°27' E 139°39'0 0.0
2014-Aug-20 13:33N 35°27' E 139°39'0 0.0
2014-Aug-20 12:33N 35°27' E 139°39'0 0.0
2014-Aug-20 11:33N 35°27' E 139°39'0 0.0
2014-Aug-20 10:33N 35°27' E 139°39'0 0.0
2014-Aug-20 09:33N 35°27' E 139°39'0 0.0
2014-Aug-20 08:33N 35°27' E 139°39'2 2.1
2014-Aug-20 07:33N 35°26' E 139°41'0 0.1
2014-Aug-20 06:33N 35°26' E 139°41'1 1.0
2014-Aug-20 05:33N 35°27' E 139°42'1 0.9
2014-Aug-20 04:33N 35°26' E 139°43'3 3.4
2014-Aug-20 03:33N 35°28' E 139°39'0 0.3
2014-Aug-20 02:33N 35°27' E 139°39'0 0.0
2014-Aug-20 01:33N 35°27' E 139°39'0 0.0
2014-Aug-20 00:33N 35°27' E 139°39'0 0.0
2014-Aug-19 23:33N 35°27' E 139°39'0 0.0
2014-Aug-19 22:33N 35°27' E 139°39'1 0.0
2014-Aug-18 23:33N 35°27' E 139°39'3 2.6
2014-Aug-18 22:33N 35°28' E 139°43'1 1.4
2014-Aug-18 21:33N 35°27' E 139°44'2 2.4
2014-Aug-18 20:33N 35°28' E 139°42'2 2.2
2014-Aug-18 19:33N 35°27' E 139°39'3 2.8
2014-Aug-18 18:33N 35°28' E 139°43'1 0.7
2014-Aug-18 17:33N 35°27' E 139°42'0 0.0
2014-Aug-18 16:33N 35°27' E 139°42'0 0.0
2014-Aug-18 15:33N 35°27' E 139°42'0 0.0
2014-Aug-18 14:33N 35°27' E 139°42'0 0.0
2014-Aug-18 13:33N 35°27' E 139°42'4 3.8
2014-Aug-18 12:33N 35°24' E 139°41'1 0.5
2014-Aug-18 11:33N 35°24' E 139°41'4 4.3
2014-Aug-18 10:33N 35°28' E 139°42'2 1.6
2014-Aug-18 09:33N 35°29' E 139°43'3 2.7
2014-Aug-18 08:33N 35°27' E 139°43'3 3.4
2014-Aug-18 07:33N 35°27' E 139°39'0 0.0
2014-Aug-18 06:33N 35°27' E 139°39'0 0.0
2014-Aug-18 05:33N 35°27' E 139°39'0 0.0
2014-Aug-18 04:33N 35°27' E 139°39'0 0.0
2014-Aug-18 03:33N 35°27' E 139°39'0 0.0
2014-Aug-18 02:33N 35°27' E 139°39'0 0.0
2014-Aug-18 01:33N 35°27' E 139°39'0 0.0
2014-Aug-18 00:33N 35°27' E 139°39'0 0.0
2014-Aug-17 07:11N 35°27' E 139°39'0 0.0
2014-Aug-17 06:33N 35°27' E 139°39'0 0.0
2014-Aug-17 05:33N 35°27' E 139°39'3 2.8
2014-Aug-17 04:34N 35°27' E 139°42'2 2.3
2014-Aug-17 03:33N 35°28' E 139°44'1 0.5
2014-Aug-17 02:33N 35°28' E 139°44'1 0.9
2014-Aug-17 01:33N 35°27' E 139°45'1 0.9
2014-Aug-17 00:33N 35°28' E 139°45'2 1.8
2014-Aug-16 23:33N 35°30' E 139°45'4 3.5
2014-Aug-16 22:34N 35°27' E 139°44'  
Track history (hours):
 
Tides and Currents Weather Stations Pressure Air Temp Water Temp Dewpoint Dewpoint Depression Visibility Wind Speed Wind Dir Waves Ship Positions

Yamato

Last reported at 2014-Aug-26 22:28 UTC. Time now 2014-Aug-27 19:19 UTC.
Position N 35°27' E 139°39'.

Length 40 m; draft 3.6 m.

Type: Tug. MMSI: 431101141.

Date/timePositionNaut miles runAvg speedWind from/ knotsBaromVisibWave heightAir tempDewpointWater temp
2014-Aug-26 22:28N 35°27' E 139°39'2 2.4
2014-Aug-26 21:33N 35°27' E 139°41'1 0.6
2014-Aug-26 20:34N 35°27' E 139°42'1 0.8
2014-Aug-26 19:34N 35°27' E 139°41'1 1.2
2014-Aug-26 18:34N 35°28' E 139°40'0 0.0
2014-Aug-26 17:34N 35°28' E 139°40'0 0.0
2014-Aug-26 16:34N 35°28' E 139°40'0 0.0
2014-Aug-26 15:33N 35°28' E 139°40'1 1.2
2014-Aug-26 14:33N 35°27' E 139°41'3 2.8
2014-Aug-26 13:33N 35°24' E 139°40'1 0.6
2014-Aug-26 12:33N 35°24' E 139°41'1 1.5
2014-Aug-26 11:33N 35°25' E 139°42'0 0.0
2014-Aug-26 10:33N 35°25' E 139°42'1 1.0
2014-Aug-26 09:34N 35°26' E 139°42'2 2.0
2014-Aug-26 08:33N 35°27' E 139°39'1 0.6
2014-Aug-26 07:33N 35°27' E 139°39'0 0.3
2014-Aug-26 06:33N 35°27' E 139°39'0 0.0
2014-Aug-26 05:34N 35°27' E 139°39'0 0.0
2014-Aug-26 04:33N 35°27' E 139°39'0 0.0
2014-Aug-26 03:34N 35°27' E 139°39'0 0.0
2014-Aug-26 02:33N 35°27' E 139°39'0 0.0
2014-Aug-26 01:33N 35°27' E 139°39'0 0.0
2014-Aug-26 00:34N 35°27' E 139°39'0 0.0
2014-Aug-25 23:34N 35°27' E 139°39'1 0.1
2014-Aug-25 07:33N 35°27' E 139°40'3 3.3
2014-Aug-25 06:33N 35°24' E 139°38'0 0.0
2014-Aug-25 05:33N 35°24' E 139°38'1 1.4
2014-Aug-25 04:33N 35°24' E 139°40'3 2.6
2014-Aug-25 03:33N 35°26' E 139°42'0 0.0
2014-Aug-25 02:33N 35°26' E 139°42'0 0.0
2014-Aug-25 01:33N 35°26' E 139°42'3 3.0
2014-Aug-25 00:33N 35°28' E 139°44'2 2.1
2014-Aug-24 23:33N 35°30' E 139°44'5 5.4
2014-Aug-24 22:33N 35°27' E 139°39'6 0.1
2014-Aug-23 03:33N 35°28' E 139°45'0 0.0
2014-Aug-23 02:33N 35°28' E 139°45'0 0.1
2014-Aug-23 01:33N 35°28' E 139°45'3 2.6
2014-Aug-23 00:33N 35°31' E 139°46'1 1.3
2014-Aug-22 23:33N 35°30' E 139°45'5 5.3
2014-Aug-22 22:33N 35°28' E 139°39'1 1.2
2014-Aug-22 21:33N 35°28' E 139°40'1 1.0
2014-Aug-22 20:33N 35°27' E 139°39'2 0.2
2014-Aug-22 11:33N 35°27' E 139°41'2 2.2
2014-Aug-22 10:33N 35°26' E 139°43'1 1.5
2014-Aug-22 09:33N 35°27' E 139°42'0 0.0
2014-Aug-22 08:33N 35°27' E 139°42'0 0.0
2014-Aug-22 07:33N 35°27' E 139°42'1 1.0
2014-Aug-22 06:33N 35°26' E 139°42'2 2.1
2014-Aug-22 05:33N 35°27' E 139°40'1 0.8
2014-Aug-22 04:33N 35°27' E 139°39'0 0.0
2014-Aug-22 03:33N 35°27' E 139°39'0 0.0
2014-Aug-22 02:33N 35°27' E 139°39'0 0.0
2014-Aug-22 01:33N 35°27' E 139°39'0 0.0
2014-Aug-22 00:33N 35°27' E 139°39'0 0.0
2014-Aug-21 23:33N 35°27' E 139°39'0 0.0
2014-Aug-21 22:33N 35°27' E 139°39'0 0.0
2014-Aug-21 21:33N 35°27' E 139°39'0 0.0
2014-Aug-21 20:33N 35°27' E 139°39'0 0.0
2014-Aug-21 09:08N 35°27' E 139°39'4 6.2
2014-Aug-21 08:34N 35°28' E 139°43'2 2.2
2014-Aug-21 07:33N 35°28' E 139°46'6 5.6
2014-Aug-21 06:33N 35°27' E 139°39'0 0.2
2014-Aug-21 05:33N 35°27' E 139°39'0 0.0
2014-Aug-21 04:33N 35°27' E 139°39'0 0.0
2014-Aug-21 03:33N 35°27' E 139°39'0 0.0
2014-Aug-21 02:33N 35°27' E 139°39'0 0.0
2014-Aug-21 01:33N 35°27' E 139°39'0 0.0
2014-Aug-21 00:33N 35°27' E 139°39'0 0.0
2014-Aug-20 23:33N 35°27' E 139°39'3 2.7
2014-Aug-20 22:33N 35°27' E 139°42'3 2.7
2014-Aug-20 21:34N 35°27' E 139°39'0 0.1
2014-Aug-20 20:33N 35°27' E 139°39'0 0.0
2014-Aug-20 19:33N 35°27' E 139°39'0 0.0
2014-Aug-20 18:33N 35°27' E 139°39'0 0.0
2014-Aug-20 17:33N 35°27' E 139°39'0 0.0
2014-Aug-20 16:33N 35°27' E 139°39'0 0.0
2014-Aug-20 15:33N 35°27' E 139°39'0 0.0
2014-Aug-20 14:33N 35°27' E 139°39'0 0.0
2014-Aug-20 13:33N 35°27' E 139°39'0 0.0
2014-Aug-20 12:33N 35°27' E 139°39'0 0.0
2014-Aug-20 11:33N 35°27' E 139°39'0 0.0
2014-Aug-20 10:33N 35°27' E 139°39'0 0.0
2014-Aug-20 09:33N 35°27' E 139°39'0 0.0
2014-Aug-20 08:33N 35°27' E 139°39'2 2.1
2014-Aug-20 07:33N 35°26' E 139°41'0 0.1
2014-Aug-20 06:33N 35°26' E 139°41'1 1.0
2014-Aug-20 05:33N 35°27' E 139°42'1 0.9
2014-Aug-20 04:33N 35°26' E 139°43'3 3.4
2014-Aug-20 03:33N 35°28' E 139°39'0 0.3
2014-Aug-20 02:33N 35°27' E 139°39'0 0.0
2014-Aug-20 01:33N 35°27' E 139°39'0 0.0
2014-Aug-20 00:33N 35°27' E 139°39'0 0.0
2014-Aug-19 23:33N 35°27' E 139°39'0 0.0
2014-Aug-19 22:33N 35°27' E 139°39'1 0.0
2014-Aug-18 23:33N 35°27' E 139°39'3 2.6
2014-Aug-18 22:33N 35°28' E 139°43'1 1.4
2014-Aug-18 21:33N 35°27' E 139°44'2 2.4
2014-Aug-18 20:33N 35°28' E 139°42'2 2.2
2014-Aug-18 19:33N 35°27' E 139°39'3 2.8
2014-Aug-18 18:33N 35°28' E 139°43'1 0.7
2014-Aug-18 17:33N 35°27' E 139°42'0 0.0
2014-Aug-18 16:33N 35°27' E 139°42'0 0.0
2014-Aug-18 15:33N 35°27' E 139°42'0 0.0
2014-Aug-18 14:33N 35°27' E 139°42'0 0.0
2014-Aug-18 13:33N 35°27' E 139°42'4 3.8
2014-Aug-18 12:33N 35°24' E 139°41'1 0.5
2014-Aug-18 11:33N 35°24' E 139°41'4 4.3
2014-Aug-18 10:33N 35°28' E 139°42'2 1.6
2014-Aug-18 09:33N 35°29' E 139°43'3 2.7
2014-Aug-18 08:33N 35°27' E 139°43'3 3.4
2014-Aug-18 07:33N 35°27' E 139°39'0 0.0
2014-Aug-18 06:33N 35°27' E 139°39'0 0.0
2014-Aug-18 05:33N 35°27' E 139°39'0 0.0
2014-Aug-18 04:33N 35°27' E 139°39'0 0.0
2014-Aug-18 03:33N 35°27' E 139°39'0 0.0
2014-Aug-18 02:33N 35°27' E 139°39'0 0.0
2014-Aug-18 01:33N 35°27' E 139°39'0 0.0
2014-Aug-18 00:33N 35°27' E 139°39'0 0.0
2014-Aug-17 07:11N 35°27' E 139°39'0 0.0
2014-Aug-17 06:33N 35°27' E 139°39'0 0.0
2014-Aug-17 05:33N 35°27' E 139°39'3 2.8
2014-Aug-17 04:34N 35°27' E 139°42'2 2.3
2014-Aug-17 03:33N 35°28' E 139°44'1 0.5
2014-Aug-17 02:33N 35°28' E 139°44'1 0.9
2014-Aug-17 01:33N 35°27' E 139°45'1 0.9
2014-Aug-17 00:33N 35°28' E 139°45'2 1.8
2014-Aug-16 23:33N 35°30' E 139°45'4 3.5
2014-Aug-16 22:34N 35°27' E 139°44'  

Dump ship's entire track history